sensor_id;sensor_type;location;lat;lon;timestamp;P1;durP1;ratioP1;P2;durP2;ratioP2
17727;SDS011;8984;49.268;12.302;2023-03-12T00:02:08;14.67;;;8.50;;
17727;SDS011;8984;49.268;12.302;2023-03-12T00:04:35;12.77;;;8.17;;
17727;SDS011;8984;49.268;12.302;2023-03-12T00:07:02;8.77;;;6.90;;
17727;SDS011;8984;49.268;12.302;2023-03-12T00:09:30;11.13;;;6.97;;
17727;SDS011;8984;49.268;12.302;2023-03-12T00:12:00;13.70;;;8.63;;
17727;SDS011;8984;49.268;12.302;2023-03-12T00:14:27;14.07;;;8.17;;
17727;SDS011;8984;49.268;12.302;2023-03-12T00:16:54;11.13;;;7.73;;
17727;SDS011;8984;49.268;12.302;2023-03-12T00:19:22;12.07;;;8.00;;
17727;SDS011;8984;49.268;12.302;2023-03-12T00:21:49;11.43;;;7.97;;
17727;SDS011;8984;49.268;12.302;2023-03-12T00:24:15;14.63;;;8.20;;
17727;SDS011;8984;49.268;12.302;2023-03-12T00:26:42;11.83;;;7.20;;
17727;SDS011;8984;49.268;12.302;2023-03-12T00:29:09;11.00;;;7.83;;
17727;SDS011;8984;49.268;12.302;2023-03-12T00:31:36;9.73;;;7.30;;
17727;SDS011;8984;49.268;12.302;2023-03-12T00:34:03;10.43;;;7.60;;
17727;SDS011;8984;49.268;12.302;2023-03-12T00:36:31;12.07;;;7.90;;
17727;SDS011;8984;49.268;12.302;2023-03-12T00:38:58;11.20;;;7.80;;
17727;SDS011;8984;49.268;12.302;2023-03-12T00:41:26;11.00;;;7.97;;
17727;SDS011;8984;49.268;12.302;2023-03-12T00:43:54;10.30;;;7.17;;
17727;SDS011;8984;49.268;12.302;2023-03-12T00:46:21;9.73;;;6.90;;
17727;SDS011;8984;49.268;12.302;2023-03-12T00:48:48;10.30;;;7.23;;
17727;SDS011;8984;49.268;12.302;2023-03-12T00:51:15;7.90;;;6.77;;
17727;SDS011;8984;49.268;12.302;2023-03-12T00:53:43;8.67;;;6.50;;
17727;SDS011;8984;49.268;12.302;2023-03-12T00:56:10;9.93;;;7.03;;
17727;SDS011;8984;49.268;12.302;2023-03-12T00:58:37;9.63;;;6.40;;
17727;SDS011;8984;49.268;12.302;2023-03-12T01:01:06;9.33;;;6.60;;
17727;SDS011;8984;49.268;12.302;2023-03-12T01:03:34;8.37;;;6.90;;
17727;SDS011;8984;49.268;12.302;2023-03-12T01:06:00;11.70;;;7.00;;
17727;SDS011;8984;49.268;12.302;2023-03-12T01:08:27;8.20;;;6.27;;
17727;SDS011;8984;49.268;12.302;2023-03-12T01:10:56;9.00;;;6.23;;
17727;SDS011;8984;49.268;12.302;2023-03-12T01:13:23;8.47;;;7.20;;
17727;SDS011;8984;49.268;12.302;2023-03-12T01:15:50;8.13;;;6.87;;
17727;SDS011;8984;49.268;12.302;2023-03-12T01:18:16;8.67;;;6.53;;
17727;SDS011;8984;49.268;12.302;2023-03-12T01:20:43;9.03;;;6.50;;
17727;SDS011;8984;49.268;12.302;2023-03-12T01:23:11;10.50;;;7.00;;
17727;SDS011;8984;49.268;12.302;2023-03-12T01:25:39;9.07;;;6.90;;
17727;SDS011;8984;49.268;12.302;2023-03-12T01:28:08;9.23;;;7.07;;
17727;SDS011;8984;49.268;12.302;2023-03-12T01:30:35;8.17;;;6.37;;
17727;SDS011;8984;49.268;12.302;2023-03-12T01:33:02;9.50;;;6.53;;
17727;SDS011;8984;49.268;12.302;2023-03-12T01:35:29;9.57;;;6.50;;
17727;SDS011;8984;49.268;12.302;2023-03-12T01:38:01;9.10;;;6.70;;
17727;SDS011;8984;49.268;12.302;2023-03-12T01:40:28;9.97;;;6.57;;
17727;SDS011;8984;49.268;12.302;2023-03-12T01:42:57;8.23;;;6.37;;
17727;SDS011;8984;49.268;12.302;2023-03-12T01:48:25;9.90;;;7.17;;
17727;SDS011;8984;49.268;12.302;2023-03-12T01:50:53;8.93;;;7.20;;
17727;SDS011;8984;49.268;12.302;2023-03-12T01:53:20;9.83;;;7.20;;
17727;SDS011;8984;49.268;12.302;2023-03-12T01:55:47;10.33;;;7.57;;
17727;SDS011;8984;49.268;12.302;2023-03-12T01:58:15;8.87;;;7.47;;
17727;SDS011;8984;49.268;12.302;2023-03-12T02:00:42;12.13;;;7.83;;
17727;SDS011;8984;49.268;12.302;2023-03-12T02:03:11;12.27;;;7.57;;
17727;SDS011;8984;49.268;12.302;2023-03-12T02:05:39;11.37;;;8.07;;
17727;SDS011;8984;49.268;12.302;2023-03-12T02:08:12;12.17;;;8.07;;
17727;SDS011;8984;49.268;12.302;2023-03-12T02:10:40;11.20;;;8.07;;
17727;SDS011;8984;49.268;12.302;2023-03-12T02:13:07;14.33;;;8.00;;
17727;SDS011;8984;49.268;12.302;2023-03-12T02:15:35;8.60;;;6.13;;
17727;SDS011;8984;49.268;12.302;2023-03-12T02:18:02;8.07;;;5.50;;
17727;SDS011;8984;49.268;12.302;2023-03-12T02:20:33;7.83;;;6.07;;
17727;SDS011;8984;49.268;12.302;2023-03-12T02:23:06;8.53;;;6.93;;
17727;SDS011;8984;49.268;12.302;2023-03-12T02:25:38;8.43;;;6.63;;
17727;SDS011;8984;49.268;12.302;2023-03-12T02:28:07;7.43;;;5.90;;
17727;SDS011;8984;49.268;12.302;2023-03-12T02:30:37;8.23;;;5.90;;
17727;SDS011;8984;49.268;12.302;2023-03-12T02:33:07;8.87;;;6.10;;
17727;SDS011;8984;49.268;12.302;2023-03-12T02:35:35;9.23;;;5.70;;
17727;SDS011;8984;49.268;12.302;2023-03-12T02:38:02;8.90;;;6.10;;
17727;SDS011;8984;49.268;12.302;2023-03-12T02:40:46;8.17;;;6.13;;
17727;SDS011;8984;49.268;12.302;2023-03-12T02:43:13;7.93;;;5.80;;
17727;SDS011;8984;49.268;12.302;2023-03-12T02:45:42;5.87;;;4.83;;
17727;SDS011;8984;49.268;12.302;2023-03-12T02:48:09;6.20;;;5.07;;
17727;SDS011;8984;49.268;12.302;2023-03-12T02:50:36;4.97;;;4.33;;
17727;SDS011;8984;49.268;12.302;2023-03-12T02:53:02;5.57;;;4.33;;
17727;SDS011;8984;49.268;12.302;2023-03-12T02:55:29;5.83;;;4.83;;
17727;SDS011;8984;49.268;12.302;2023-03-12T02:57:57;6.53;;;4.77;;
17727;SDS011;8984;49.268;12.302;2023-03-12T03:00:24;5.97;;;4.60;;
17727;SDS011;8984;49.268;12.302;2023-03-12T03:02:51;5.17;;;4.30;;
17727;SDS011;8984;49.268;12.302;2023-03-12T03:05:18;6.77;;;4.50;;
17727;SDS011;8984;49.268;12.302;2023-03-12T03:07:45;4.63;;;4.13;;
17727;SDS011;8984;49.268;12.302;2023-03-12T03:10:12;5.47;;;4.40;;
17727;SDS011;8984;49.268;12.302;2023-03-12T03:12:41;5.50;;;4.60;;
17727;SDS011;8984;49.268;12.302;2023-03-12T03:15:10;4.80;;;4.40;;
17727;SDS011;8984;49.268;12.302;2023-03-12T03:17:37;4.70;;;4.20;;
17727;SDS011;8984;49.268;12.302;2023-03-12T03:20:04;4.70;;;4.00;;
17727;SDS011;8984;49.268;12.302;2023-03-12T03:22:36;5.40;;;4.37;;
17727;SDS011;8984;49.268;12.302;2023-03-12T03:25:04;4.43;;;4.03;;
17727;SDS011;8984;49.268;12.302;2023-03-12T03:27:32;5.60;;;4.40;;
17727;SDS011;8984;49.268;12.302;2023-03-12T03:29:59;4.67;;;4.20;;
17727;SDS011;8984;49.268;12.302;2023-03-12T03:32:27;7.67;;;4.70;;
17727;SDS011;8984;49.268;12.302;2023-03-12T03:34:54;6.27;;;4.40;;
17727;SDS011;8984;49.268;12.302;2023-03-12T03:37:21;5.00;;;4.07;;
17727;SDS011;8984;49.268;12.302;2023-03-12T03:39:48;5.13;;;4.27;;
17727;SDS011;8984;49.268;12.302;2023-03-12T03:42:14;4.73;;;3.97;;
17727;SDS011;8984;49.268;12.302;2023-03-12T03:44:41;4.40;;;3.77;;
17727;SDS011;8984;49.268;12.302;2023-03-12T03:47:08;4.40;;;3.77;;
17727;SDS011;8984;49.268;12.302;2023-03-12T03:49:36;4.63;;;3.97;;
17727;SDS011;8984;49.268;12.302;2023-03-12T03:52:04;4.90;;;4.00;;
17727;SDS011;8984;49.268;12.302;2023-03-12T03:54:31;5.50;;;4.03;;
17727;SDS011;8984;49.268;12.302;2023-03-12T03:56:58;5.00;;;4.30;;
17727;SDS011;8984;49.268;12.302;2023-03-12T03:59:25;4.93;;;4.40;;
17727;SDS011;8984;49.268;12.302;2023-03-12T04:01:51;5.43;;;4.40;;
17727;SDS011;8984;49.268;12.302;2023-03-12T04:04:18;6.13;;;4.47;;
17727;SDS011;8984;49.268;12.302;2023-03-12T04:06:48;6.27;;;5.00;;
17727;SDS011;8984;49.268;12.302;2023-03-12T04:09:14;5.57;;;4.63;;
17727;SDS011;8984;49.268;12.302;2023-03-12T04:11:41;7.63;;;4.90;;
17727;SDS011;8984;49.268;12.302;2023-03-12T04:14:08;7.50;;;5.00;;
17727;SDS011;8984;49.268;12.302;2023-03-12T04:16:35;6.33;;;4.80;;
17727;SDS011;8984;49.268;12.302;2023-03-12T04:19:01;7.33;;;5.03;;
17727;SDS011;8984;49.268;12.302;2023-03-12T04:21:29;5.33;;;4.80;;
17727;SDS011;8984;49.268;12.302;2023-03-12T04:23:57;5.73;;;4.80;;
17727;SDS011;8984;49.268;12.302;2023-03-12T04:26:24;7.33;;;5.20;;
17727;SDS011;8984;49.268;12.302;2023-03-12T04:28:50;7.10;;;5.00;;
17727;SDS011;8984;49.268;12.302;2023-03-12T04:31:17;5.83;;;4.53;;
17727;SDS011;8984;49.268;12.302;2023-03-12T04:33:44;7.53;;;4.60;;
17727;SDS011;8984;49.268;12.302;2023-03-12T04:36:11;5.07;;;4.57;;
17727;SDS011;8984;49.268;12.302;2023-03-12T04:38:38;5.37;;;4.50;;
17727;SDS011;8984;49.268;12.302;2023-03-12T04:41:07;4.77;;;4.27;;
17727;SDS011;8984;49.268;12.302;2023-03-12T04:43:36;6.23;;;4.40;;
17727;SDS011;8984;49.268;12.302;2023-03-12T04:46:03;7.50;;;4.70;;
17727;SDS011;8984;49.268;12.302;2023-03-12T04:48:31;5.77;;;4.40;;
17727;SDS011;8984;49.268;12.302;2023-03-12T04:50:58;7.07;;;4.50;;
17727;SDS011;8984;49.268;12.302;2023-03-12T04:53:25;5.97;;;4.57;;
17727;SDS011;8984;49.268;12.302;2023-03-12T04:55:52;5.13;;;4.40;;
17727;SDS011;8984;49.268;12.302;2023-03-12T04:58:20;4.87;;;4.40;;
17727;SDS011;8984;49.268;12.302;2023-03-12T05:00:48;5.47;;;4.37;;
17727;SDS011;8984;49.268;12.302;2023-03-12T05:03:16;5.03;;;4.27;;
17727;SDS011;8984;49.268;12.302;2023-03-12T05:05:43;6.53;;;4.67;;
17727;SDS011;8984;49.268;12.302;2023-03-12T05:08:10;4.83;;;4.17;;
17727;SDS011;8984;49.268;12.302;2023-03-12T05:10:37;6.70;;;4.93;;
17727;SDS011;8984;49.268;12.302;2023-03-12T05:13:11;4.90;;;4.33;;
17727;SDS011;8984;49.268;12.302;2023-03-12T05:15:40;5.07;;;4.20;;
17727;SDS011;8984;49.268;12.302;2023-03-12T05:18:06;7.93;;;4.87;;
17727;SDS011;8984;49.268;12.302;2023-03-12T05:20:33;7.83;;;4.90;;
17727;SDS011;8984;49.268;12.302;2023-03-12T05:23:02;7.33;;;4.80;;
17727;SDS011;8984;49.268;12.302;2023-03-12T05:25:29;6.53;;;4.90;;
17727;SDS011;8984;49.268;12.302;2023-03-12T05:27:55;6.93;;;5.43;;
17727;SDS011;8984;49.268;12.302;2023-03-12T05:30:22;8.00;;;4.77;;
17727;SDS011;8984;49.268;12.302;2023-03-12T05:32:52;5.27;;;4.67;;
17727;SDS011;8984;49.268;12.302;2023-03-12T05:35:20;7.17;;;4.70;;
17727;SDS011;8984;49.268;12.302;2023-03-12T05:37:47;7.10;;;5.00;;
17727;SDS011;8984;49.268;12.302;2023-03-12T05:40:14;6.33;;;4.90;;
17727;SDS011;8984;49.268;12.302;2023-03-12T05:42:41;6.33;;;4.97;;
17727;SDS011;8984;49.268;12.302;2023-03-12T05:45:08;8.40;;;5.40;;
17727;SDS011;8984;49.268;12.302;2023-03-12T05:47:35;6.07;;;5.17;;
17727;SDS011;8984;49.268;12.302;2023-03-12T05:50:04;7.87;;;5.33;;
17727;SDS011;8984;49.268;12.302;2023-03-12T05:52:32;7.00;;;5.40;;
17727;SDS011;8984;49.268;12.302;2023-03-12T05:54:58;7.47;;;5.40;;
17727;SDS011;8984;49.268;12.302;2023-03-12T05:57:25;6.73;;;5.50;;
17727;SDS011;8984;49.268;12.302;2023-03-12T05:59:52;6.90;;;5.20;;
17727;SDS011;8984;49.268;12.302;2023-03-12T06:02:19;8.70;;;5.43;;
17727;SDS011;8984;49.268;12.302;2023-03-12T06:04:45;9.13;;;6.70;;
17727;SDS011;8984;49.268;12.302;2023-03-12T06:07:14;7.00;;;5.40;;
17727;SDS011;8984;49.268;12.302;2023-03-12T06:09:40;8.30;;;6.50;;
17727;SDS011;8984;49.268;12.302;2023-03-12T06:12:07;8.17;;;5.90;;
17727;SDS011;8984;49.268;12.302;2023-03-12T06:14:34;9.23;;;7.13;;
17727;SDS011;8984;49.268;12.302;2023-03-12T06:17:01;6.53;;;5.70;;
17727;SDS011;8984;49.268;12.302;2023-03-12T06:19:28;8.60;;;6.23;;
17727;SDS011;8984;49.268;12.302;2023-03-12T06:21:55;12.40;;;9.00;;
17727;SDS011;8984;49.268;12.302;2023-03-12T06:24:23;7.17;;;5.97;;
17727;SDS011;8984;49.268;12.302;2023-03-12T06:26:50;9.37;;;6.43;;
17727;SDS011;8984;49.268;12.302;2023-03-12T06:29:17;9.13;;;5.63;;
17727;SDS011;8984;49.268;12.302;2023-03-12T06:31:44;8.10;;;5.87;;
17727;SDS011;8984;49.268;12.302;2023-03-12T06:34:12;6.43;;;5.50;;
17727;SDS011;8984;49.268;12.302;2023-03-12T06:36:40;7.43;;;6.00;;
17727;SDS011;8984;49.268;12.302;2023-03-12T06:39:07;7.37;;;5.57;;
17727;SDS011;8984;49.268;12.302;2023-03-12T06:41:35;10.90;;;6.40;;
17727;SDS011;8984;49.268;12.302;2023-03-12T06:44:02;7.63;;;5.70;;
17727;SDS011;8984;49.268;12.302;2023-03-12T06:46:30;6.97;;;5.73;;
17727;SDS011;8984;49.268;12.302;2023-03-12T06:48:57;9.33;;;5.50;;
17727;SDS011;8984;49.268;12.302;2023-03-12T06:51:24;6.97;;;5.27;;
17727;SDS011;8984;49.268;12.302;2023-03-12T06:53:50;6.20;;;5.13;;
17727;SDS011;8984;49.268;12.302;2023-03-12T06:56:17;7.10;;;5.50;;
17727;SDS011;8984;49.268;12.302;2023-03-12T06:58:45;6.87;;;4.60;;
17727;SDS011;8984;49.268;12.302;2023-03-12T07:01:12;6.27;;;4.90;;
17727;SDS011;8984;49.268;12.302;2023-03-12T07:03:39;6.80;;;4.43;;
17727;SDS011;8984;49.268;12.302;2023-03-12T07:06:11;6.07;;;4.70;;
17727;SDS011;8984;49.268;12.302;2023-03-12T07:08:38;6.77;;;5.03;;
17727;SDS011;8984;49.268;12.302;2023-03-12T07:11:05;4.87;;;4.20;;
17727;SDS011;8984;49.268;12.302;2023-03-12T07:13:32;5.07;;;4.53;;
17727;SDS011;8984;49.268;12.302;2023-03-12T07:16:00;8.27;;;6.20;;
17727;SDS011;8984;49.268;12.302;2023-03-12T07:18:27;8.13;;;5.13;;
17727;SDS011;8984;49.268;12.302;2023-03-12T07:20:54;7.37;;;5.37;;
17727;SDS011;8984;49.268;12.302;2023-03-12T07:23:21;7.33;;;5.40;;
17727;SDS011;8984;49.268;12.302;2023-03-12T07:25:48;6.00;;;5.17;;
17727;SDS011;8984;49.268;12.302;2023-03-12T07:28:16;8.63;;;5.80;;
17727;SDS011;8984;49.268;12.302;2023-03-12T07:30:43;5.03;;;4.53;;
17727;SDS011;8984;49.268;12.302;2023-03-12T07:33:16;7.80;;;4.90;;
17727;SDS011;8984;49.268;12.302;2023-03-12T07:35:44;7.43;;;5.37;;
17727;SDS011;8984;49.268;12.302;2023-03-12T07:38:12;6.47;;;4.90;;
17727;SDS011;8984;49.268;12.302;2023-03-12T07:40:39;6.47;;;4.80;;
17727;SDS011;8984;49.268;12.302;2023-03-12T07:43:06;6.10;;;4.87;;
17727;SDS011;8984;49.268;12.302;2023-03-12T07:45:35;7.73;;;5.10;;
17727;SDS011;8984;49.268;12.302;2023-03-12T07:48:02;6.87;;;5.30;;
17727;SDS011;8984;49.268;12.302;2023-03-12T07:50:31;8.63;;;6.10;;
17727;SDS011;8984;49.268;12.302;2023-03-12T07:52:57;7.57;;;5.37;;
17727;SDS011;8984;49.268;12.302;2023-03-12T07:55:24;7.30;;;5.43;;
17727;SDS011;8984;49.268;12.302;2023-03-12T07:57:51;7.07;;;5.13;;
17727;SDS011;8984;49.268;12.302;2023-03-12T08:00:20;8.20;;;5.30;;
17727;SDS011;8984;49.268;12.302;2023-03-12T08:02:47;5.97;;;4.90;;
17727;SDS011;8984;49.268;12.302;2023-03-12T08:05:14;7.47;;;5.33;;
17727;SDS011;8984;49.268;12.302;2023-03-12T08:07:42;7.20;;;5.40;;
17727;SDS011;8984;49.268;12.302;2023-03-12T08:10:10;7.30;;;5.13;;
17727;SDS011;8984;49.268;12.302;2023-03-12T08:12:37;9.10;;;5.60;;
17727;SDS011;8984;49.268;12.302;2023-03-12T08:15:04;6.20;;;5.10;;
17727;SDS011;8984;49.268;12.302;2023-03-12T08:17:32;7.50;;;5.47;;
17727;SDS011;8984;49.268;12.302;2023-03-12T08:19:59;7.53;;;5.43;;
17727;SDS011;8984;49.268;12.302;2023-03-12T08:22:26;8.07;;;5.30;;
17727;SDS011;8984;49.268;12.302;2023-03-12T08:24:54;9.93;;;6.07;;
17727;SDS011;8984;49.268;12.302;2023-03-12T08:27:21;9.43;;;5.13;;
17727;SDS011;8984;49.268;12.302;2023-03-12T08:29:47;5.57;;;4.93;;
17727;SDS011;8984;49.268;12.302;2023-03-12T08:32:14;8.90;;;5.60;;
17727;SDS011;8984;49.268;12.302;2023-03-12T08:34:41;6.70;;;5.03;;
17727;SDS011;8984;49.268;12.302;2023-03-12T08:37:08;6.97;;;5.33;;
17727;SDS011;8984;49.268;12.302;2023-03-12T08:39:35;7.37;;;5.17;;
17727;SDS011;8984;49.268;12.302;2023-03-12T08:42:03;7.67;;;5.53;;
17727;SDS011;8984;49.268;12.302;2023-03-12T08:44:31;7.93;;;5.33;;
17727;SDS011;8984;49.268;12.302;2023-03-12T08:46:58;11.47;;;5.60;;
17727;SDS011;8984;49.268;12.302;2023-03-12T08:49:25;6.47;;;5.00;;
17727;SDS011;8984;49.268;12.302;2023-03-12T08:51:52;6.17;;;5.00;;
17727;SDS011;8984;49.268;12.302;2023-03-12T08:54:19;6.97;;;5.13;;
17727;SDS011;8984;49.268;12.302;2023-03-12T08:56:48;5.33;;;4.60;;
17727;SDS011;8984;49.268;12.302;2023-03-12T08:59:17;9.00;;;4.87;;
17727;SDS011;8984;49.268;12.302;2023-03-12T09:01:46;8.10;;;4.97;;
17727;SDS011;8984;49.268;12.302;2023-03-12T09:04:13;7.30;;;4.60;;
17727;SDS011;8984;49.268;12.302;2023-03-12T09:06:40;7.17;;;5.47;;
17727;SDS011;8984;49.268;12.302;2023-03-12T09:09:07;10.40;;;5.53;;
17727;SDS011;8984;49.268;12.302;2023-03-12T09:11:34;6.77;;;5.17;;
17727;SDS011;8984;49.268;12.302;2023-03-12T09:14:03;7.50;;;5.53;;
17727;SDS011;8984;49.268;12.302;2023-03-12T09:16:31;8.37;;;5.37;;
17727;SDS011;8984;49.268;12.302;2023-03-12T09:18:58;7.53;;;5.57;;
17727;SDS011;8984;49.268;12.302;2023-03-12T09:21:25;6.30;;;5.57;;
17727;SDS011;8984;49.268;12.302;2023-03-12T09:23:52;6.53;;;5.03;;
17727;SDS011;8984;49.268;12.302;2023-03-12T09:26:19;11.40;;;6.27;;
17727;SDS011;8984;49.268;12.302;2023-03-12T09:28:45;6.43;;;5.47;;
17727;SDS011;8984;49.268;12.302;2023-03-12T09:31:12;9.20;;;6.50;;
17727;SDS011;8984;49.268;12.302;2023-03-12T09:33:41;10.53;;;6.40;;
17727;SDS011;8984;49.268;12.302;2023-03-12T09:36:08;7.60;;;5.77;;
17727;SDS011;8984;49.268;12.302;2023-03-12T09:38:35;8.00;;;6.37;;
17727;SDS011;8984;49.268;12.302;2023-03-12T09:41:02;7.93;;;5.90;;
17727;SDS011;8984;49.268;12.302;2023-03-12T09:43:32;9.33;;;6.37;;
17727;SDS011;8984;49.268;12.302;2023-03-12T09:46:03;11.20;;;8.17;;
17727;SDS011;8984;49.268;12.302;2023-03-12T09:48:36;14.77;;;9.03;;
17727;SDS011;8984;49.268;12.302;2023-03-12T09:51:05;7.50;;;5.70;;
17727;SDS011;8984;49.268;12.302;2023-03-12T09:53:39;6.77;;;5.27;;
17727;SDS011;8984;49.268;12.302;2023-03-12T09:56:13;8.03;;;5.03;;
17727;SDS011;8984;49.268;12.302;2023-03-12T09:58:41;6.17;;;4.67;;
17727;SDS011;8984;49.268;12.302;2023-03-12T10:01:17;10.17;;;7.43;;
17727;SDS011;8984;49.268;12.302;2023-03-12T10:04:03;10.13;;;6.60;;
17727;SDS011;8984;49.268;12.302;2023-03-12T10:06:44;9.70;;;4.37;;
17727;SDS011;8984;49.268;12.302;2023-03-12T10:09:20;6.57;;;4.33;;
17727;SDS011;8984;49.268;12.302;2023-03-12T10:11:58;7.97;;;4.50;;
17727;SDS011;8984;49.268;12.302;2023-03-12T10:14:31;4.67;;;4.10;;
17727;SDS011;8984;49.268;12.302;2023-03-12T10:17:16;8.23;;;4.17;;
17727;SDS011;8984;49.268;12.302;2023-03-12T10:19:59;5.37;;;3.93;;
17727;SDS011;8984;49.268;12.302;2023-03-12T10:22:42;6.23;;;3.80;;
17727;SDS011;8984;49.268;12.302;2023-03-12T10:25:19;7.13;;;4.03;;
17727;SDS011;8984;49.268;12.302;2023-03-12T10:27:52;4.37;;;3.57;;
17727;SDS011;8984;49.268;12.302;2023-03-12T10:30:23;4.83;;;3.90;;
17727;SDS011;8984;49.268;12.302;2023-03-12T10:32:54;9.30;;;4.40;;
17727;SDS011;8984;49.268;12.302;2023-03-12T10:35:24;4.60;;;3.63;;
17727;SDS011;8984;49.268;12.302;2023-03-12T10:37:56;4.93;;;4.20;;
17727;SDS011;8984;49.268;12.302;2023-03-12T10:40:25;6.40;;;4.30;;
17727;SDS011;8984;49.268;12.302;2023-03-12T10:42:53;7.93;;;5.40;;
17727;SDS011;8984;49.268;12.302;2023-03-12T10:45:22;5.47;;;3.97;;
17727;SDS011;8984;49.268;12.302;2023-03-12T10:47:56;4.73;;;3.67;;
17727;SDS011;8984;49.268;12.302;2023-03-12T10:50:27;6.80;;;3.80;;
17727;SDS011;8984;49.268;12.302;2023-03-12T10:55:59;7.37;;;4.10;;
17727;SDS011;8984;49.268;12.302;2023-03-12T10:58:30;6.80;;;5.30;;
17727;SDS011;8984;49.268;12.302;2023-03-12T11:00:59;8.23;;;4.57;;
17727;SDS011;8984;49.268;12.302;2023-03-12T11:03:27;7.40;;;4.27;;
17727;SDS011;8984;49.268;12.302;2023-03-12T11:05:55;6.13;;;4.63;;
17727;SDS011;8984;49.268;12.302;2023-03-12T11:08:25;14.07;;;7.20;;
17727;SDS011;8984;49.268;12.302;2023-03-12T11:10:54;6.10;;;4.03;;
17727;SDS011;8984;49.268;12.302;2023-03-12T11:13:24;8.33;;;5.80;;
17727;SDS011;8984;49.268;12.302;2023-03-12T11:15:54;8.73;;;5.13;;
17727;SDS011;8984;49.268;12.302;2023-03-12T11:18:27;5.13;;;4.30;;
17727;SDS011;8984;49.268;12.302;2023-03-12T11:20:57;7.07;;;4.63;;
17727;SDS011;8984;49.268;12.302;2023-03-12T11:23:39;6.27;;;4.97;;
17727;SDS011;8984;49.268;12.302;2023-03-12T11:26:10;6.70;;;4.67;;
17727;SDS011;8984;49.268;12.302;2023-03-12T11:28:42;6.13;;;4.80;;
17727;SDS011;8984;49.268;12.302;2023-03-12T11:31:14;5.23;;;4.10;;
17727;SDS011;8984;49.268;12.302;2023-03-12T11:33:45;4.93;;;4.10;;
17727;SDS011;8984;49.268;12.302;2023-03-12T11:36:15;6.37;;;4.60;;
17727;SDS011;8984;49.268;12.302;2023-03-12T11:38:53;8.03;;;5.03;;
17727;SDS011;8984;49.268;12.302;2023-03-12T11:41:28;6.60;;;4.33;;
17727;SDS011;8984;49.268;12.302;2023-03-12T11:44:20;4.53;;;3.90;;
17727;SDS011;8984;49.268;12.302;2023-03-12T11:47:02;7.03;;;4.40;;
17727;SDS011;8984;49.268;12.302;2023-03-12T11:49:42;6.60;;;4.47;;
17727;SDS011;8984;49.268;12.302;2023-03-12T11:52:41;6.60;;;4.43;;
17727;SDS011;8984;49.268;12.302;2023-03-12T11:55:17;6.53;;;4.97;;
17727;SDS011;8984;49.268;12.302;2023-03-12T11:58:01;7.33;;;4.70;;
17727;SDS011;8984;49.268;12.302;2023-03-12T12:00:43;8.10;;;4.77;;
17727;SDS011;8984;49.268;12.302;2023-03-12T12:03:28;7.40;;;4.60;;
17727;SDS011;8984;49.268;12.302;2023-03-12T12:06:10;7.00;;;4.60;;
17727;SDS011;8984;49.268;12.302;2023-03-12T12:08:53;10.47;;;6.27;;
17727;SDS011;8984;49.268;12.302;2023-03-12T12:11:45;7.20;;;5.43;;
17727;SDS011;8984;49.268;12.302;2023-03-12T12:14:31;9.97;;;6.30;;
17727;SDS011;8984;49.268;12.302;2023-03-12T12:17:20;11.70;;;6.67;;
17727;SDS011;8984;49.268;12.302;2023-03-12T12:20:00;8.40;;;6.10;;
17727;SDS011;8984;49.268;12.302;2023-03-12T12:22:41;7.90;;;5.80;;
17727;SDS011;8984;49.268;12.302;2023-03-12T12:25:21;7.43;;;6.17;;
17727;SDS011;8984;49.268;12.302;2023-03-12T12:27:56;7.10;;;5.50;;
17727;SDS011;8984;49.268;12.302;2023-03-12T12:30:41;8.17;;;5.53;;
17727;SDS011;8984;49.268;12.302;2023-03-12T12:33:20;11.30;;;5.67;;
17727;SDS011;8984;49.268;12.302;2023-03-12T12:35:59;8.90;;;5.73;;
17727;SDS011;8984;49.268;12.302;2023-03-12T12:38:28;14.23;;;9.03;;
17727;SDS011;8984;49.268;12.302;2023-03-12T12:40:59;12.67;;;10.10;;
17727;SDS011;8984;49.268;12.302;2023-03-12T12:43:29;11.73;;;8.50;;
17727;SDS011;8984;49.268;12.302;2023-03-12T12:45:59;11.33;;;9.30;;
17727;SDS011;8984;49.268;12.302;2023-03-12T12:48:32;8.83;;;6.40;;
17727;SDS011;8984;49.268;12.302;2023-03-12T12:51:03;8.77;;;6.70;;
17727;SDS011;8984;49.268;12.302;2023-03-12T12:53:32;11.03;;;6.83;;
17727;SDS011;8984;49.268;12.302;2023-03-12T12:56:06;8.63;;;6.63;;
17727;SDS011;8984;49.268;12.302;2023-03-12T13:01:32;11.03;;;6.87;;
17727;SDS011;8984;49.268;12.302;2023-03-12T13:04:03;10.10;;;6.80;;
17727;SDS011;8984;49.268;12.302;2023-03-12T13:06:53;12.97;;;10.63;;
17727;SDS011;8984;49.268;12.302;2023-03-12T13:09:33;8.43;;;6.80;;
17727;SDS011;8984;49.268;12.302;2023-03-12T13:12:05;10.00;;;7.33;;
17727;SDS011;8984;49.268;12.302;2023-03-12T13:14:40;10.03;;;7.23;;
17727;SDS011;8984;49.268;12.302;2023-03-12T13:17:18;9.37;;;6.67;;
17727;SDS011;8984;49.268;12.302;2023-03-12T13:19:49;12.27;;;7.60;;
17727;SDS011;8984;49.268;12.302;2023-03-12T13:22:20;9.20;;;7.13;;
17727;SDS011;8984;49.268;12.302;2023-03-12T13:25:09;10.20;;;7.47;;
17727;SDS011;8984;49.268;12.302;2023-03-12T13:27:56;9.87;;;7.80;;
17727;SDS011;8984;49.268;12.302;2023-03-12T13:33:12;9.90;;;7.53;;
17727;SDS011;8984;49.268;12.302;2023-03-12T13:35:41;12.00;;;8.17;;
17727;SDS011;8984;49.268;12.302;2023-03-12T13:38:16;11.37;;;8.20;;
17727;SDS011;8984;49.268;12.302;2023-03-12T13:40:59;9.80;;;8.10;;
17727;SDS011;8984;49.268;12.302;2023-03-12T13:46:33;10.80;;;9.53;;
17727;SDS011;8984;49.268;12.302;2023-03-12T13:49:16;11.97;;;8.73;;
17727;SDS011;8984;49.268;12.302;2023-03-12T13:51:54;12.43;;;9.97;;
17727;SDS011;8984;49.268;12.302;2023-03-12T13:54:28;15.53;;;9.50;;
17727;SDS011;8984;49.268;12.302;2023-03-12T13:57:09;13.27;;;9.07;;
17727;SDS011;8984;49.268;12.302;2023-03-12T13:59:45;13.03;;;7.90;;
17727;SDS011;8984;49.268;12.302;2023-03-12T14:02:20;13.63;;;9.37;;
17727;SDS011;8984;49.268;12.302;2023-03-12T14:04:50;12.77;;;10.30;;
17727;SDS011;8984;49.268;12.302;2023-03-12T14:07:22;13.43;;;9.23;;
17727;SDS011;8984;49.268;12.302;2023-03-12T14:10:06;10.10;;;8.40;;
17727;SDS011;8984;49.268;12.302;2023-03-12T14:12:45;15.37;;;9.40;;
17727;SDS011;8984;49.268;12.302;2023-03-12T14:15:23;13.03;;;10.23;;
17727;SDS011;8984;49.268;12.302;2023-03-12T14:17:56;16.03;;;11.30;;
17727;SDS011;8984;49.268;12.302;2023-03-12T14:20:26;16.93;;;10.80;;
17727;SDS011;8984;49.268;12.302;2023-03-12T14:22:56;15.13;;;10.13;;
17727;SDS011;8984;49.268;12.302;2023-03-12T14:25:30;14.87;;;11.00;;
17727;SDS011;8984;49.268;12.302;2023-03-12T14:27:59;13.20;;;10.73;;
17727;SDS011;8984;49.268;12.302;2023-03-12T14:30:30;11.47;;;9.60;;
17727;SDS011;8984;49.268;12.302;2023-03-12T14:33:08;12.63;;;9.93;;
17727;SDS011;8984;49.268;12.302;2023-03-12T14:35:39;13.97;;;10.40;;
17727;SDS011;8984;49.268;12.302;2023-03-12T14:38:12;14.40;;;11.27;;
17727;SDS011;8984;49.268;12.302;2023-03-12T14:40:42;15.27;;;12.03;;
17727;SDS011;8984;49.268;12.302;2023-03-12T14:43:20;15.80;;;11.70;;
17727;SDS011;8984;49.268;12.302;2023-03-12T14:45:50;17.20;;;12.17;;
17727;SDS011;8984;49.268;12.302;2023-03-12T14:48:20;13.30;;;10.97;;
17727;SDS011;8984;49.268;12.302;2023-03-12T14:50:47;20.33;;;14.73;;
17727;SDS011;8984;49.268;12.302;2023-03-12T14:53:18;16.10;;;11.53;;
17727;SDS011;8984;49.268;12.302;2023-03-12T14:55:58;12.63;;;10.83;;
17727;SDS011;8984;49.268;12.302;2023-03-12T14:58:26;11.67;;;9.10;;
17727;SDS011;8984;49.268;12.302;2023-03-12T15:00:53;14.60;;;10.60;;
17727;SDS011;8984;49.268;12.302;2023-03-12T15:03:22;11.67;;;10.43;;
17727;SDS011;8984;49.268;12.302;2023-03-12T15:05:51;14.77;;;10.93;;
17727;SDS011;8984;49.268;12.302;2023-03-12T15:08:19;16.07;;;12.53;;
17727;SDS011;8984;49.268;12.302;2023-03-12T15:10:47;14.73;;;11.40;;
17727;SDS011;8984;49.268;12.302;2023-03-12T15:13:15;10.63;;;9.53;;
17727;SDS011;8984;49.268;12.302;2023-03-12T15:15:45;11.20;;;8.93;;